logo
Search for airport 
image banner adimage banner adimage banner ad
image banner ad

WARW - Bawean / Harun Thohir

Located in Tambak, Indonesia

ICAO - , IATA - BXW

Data provided by Airmate  

General information

Coordinates: S5°43'25" E112°40'36"
Elevation is 180 feet MSL.
 
View others Airports in Jawa Timur

Operational data

Special qualification required
Current time UTC:
Current local time:
Weather at : - ( 0 km )
METAR: CYAT 152104Z AUTO 32013G20KT 8SM -RA -UP BKN020 OVC026 02/M00 A2991 RMK SLP130
View NOTAMs / SUP AIP / TFR affecting this airport [VIEW]
Communications frequencies: [VIEW]

Runways:

RWY identifierQFULength (ft)Width (ft)SurfaceLDA (ft)
0991°305175UNK
27271°305175UNK

Airport contact information

Address: Tambak Indonesia

Satellite view of WARW